Dangriga, Belize
Current Conditions -  °F | °C
As of 6:00 PM on Wednesday 28 Jan 2015 (Local Time) from MZBZ Reporting Station
Broken Clouds Broken Clouds  
Wind Chill: 75°   Ceiling: 4300
Heat Index: 75°   Visibility: 6mi
Dew Point: 63°   Wind: 3mph
Humidity: 65%   Direction: 50°NE
Pressure: 30.08"   Gusts: NA
Location:  16.97°N, 88.22°W
Report Text: MZBZ 290000Z 05003KT 9999 FEW020 BKN043 24/17 A3008 Q1018 NOSIG
Loading
Personal Weather Stations






























Interactive Weather Map New forecast layout! Learn more

10-Day Weather Forecast

Advertisements
Track Severe Weather on mobile